sensor_id;sensor_type;location;lat;lon;timestamp;P1;durP1;ratioP1;P2;durP2;ratioP2
52964;SDS011;42923;53.220;6.528;2022-09-21T00:01:07;17.52;;;9.63;;
52964;SDS011;42923;53.220;6.528;2022-09-21T00:03:34;14.82;;;8.43;;
52964;SDS011;42923;53.220;6.528;2022-09-21T00:06:02;14.75;;;8.05;;
52964;SDS011;42923;53.220;6.528;2022-09-21T00:08:31;19.17;;;9.05;;
52964;SDS011;42923;53.220;6.528;2022-09-21T00:10:57;15.35;;;8.55;;
52964;SDS011;42923;53.220;6.528;2022-09-21T00:13:24;13.90;;;9.88;;
52964;SDS011;42923;53.220;6.528;2022-09-21T00:15:52;13.00;;;8.35;;
52964;SDS011;42923;53.220;6.528;2022-09-21T00:18:19;15.45;;;8.38;;
52964;SDS011;42923;53.220;6.528;2022-09-21T00:20:45;11.30;;;7.65;;
52964;SDS011;42923;53.220;6.528;2022-09-21T00:23:11;12.95;;;7.85;;
52964;SDS011;42923;53.220;6.528;2022-09-21T00:25:36;11.75;;;7.72;;
52964;SDS011;42923;53.220;6.528;2022-09-21T00:28:02;11.70;;;7.22;;
52964;SDS011;42923;53.220;6.528;2022-09-21T00:30:28;10.32;;;8.35;;
52964;SDS011;42923;53.220;6.528;2022-09-21T00:32:54;10.18;;;7.25;;
52964;SDS011;42923;53.220;6.528;2022-09-21T00:35:20;11.63;;;6.68;;
52964;SDS011;42923;53.220;6.528;2022-09-21T00:37:46;10.30;;;7.00;;
52964;SDS011;42923;53.220;6.528;2022-09-21T00:40:11;12.60;;;8.05;;
52964;SDS011;42923;53.220;6.528;2022-09-21T00:42:37;13.93;;;8.43;;
52964;SDS011;42923;53.220;6.528;2022-09-21T00:45:04;22.38;;;9.00;;
52964;SDS011;42923;53.220;6.528;2022-09-21T00:47:40;13.63;;;9.10;;
52964;SDS011;42923;53.220;6.528;2022-09-21T00:50:09;12.70;;;7.85;;
52964;SDS011;42923;53.220;6.528;2022-09-21T00:52:46;12.30;;;8.15;;
52964;SDS011;42923;53.220;6.528;2022-09-21T00:55:27;13.85;;;7.68;;
52964;SDS011;42923;53.220;6.528;2022-09-21T00:58:09;13.13;;;8.00;;
52964;SDS011;42923;53.220;6.528;2022-09-21T01:00:40;14.05;;;8.73;;
52964;SDS011;42923;53.220;6.528;2022-09-21T01:03:06;14.60;;;8.02;;
52964;SDS011;42923;53.220;6.528;2022-09-21T01:05:34;12.75;;;8.68;;
52964;SDS011;42923;53.220;6.528;2022-09-21T01:08:00;10.55;;;8.70;;
52964;SDS011;42923;53.220;6.528;2022-09-21T01:10:31;12.80;;;8.25;;
52964;SDS011;42923;53.220;6.528;2022-09-21T01:13:33;11.52;;;7.53;;
52964;SDS011;42923;53.220;6.528;2022-09-21T01:19:04;13.25;;;8.52;;
52964;SDS011;42923;53.220;6.528;2022-09-21T01:22:16;15.52;;;9.20;;
52964;SDS011;42923;53.220;6.528;2022-09-21T01:25:08;15.48;;;9.95;;
52964;SDS011;42923;53.220;6.528;2022-09-21T01:30:36;10.70;;;8.32;;
52964;SDS011;42923;53.220;6.528;2022-09-21T01:33:08;15.27;;;9.82;;
52964;SDS011;42923;53.220;6.528;2022-09-21T01:38:45;17.13;;;9.20;;
52964;SDS011;42923;53.220;6.528;2022-09-21T01:41:15;14.63;;;9.45;;
52964;SDS011;42923;53.220;6.528;2022-09-21T01:43:46;15.45;;;10.43;;
52964;SDS011;42923;53.220;6.528;2022-09-21T01:46:18;17.63;;;10.05;;
52964;SDS011;42923;53.220;6.528;2022-09-21T01:48:48;14.30;;;9.20;;
52964;SDS011;42923;53.220;6.528;2022-09-21T01:51:18;14.48;;;9.13;;
52964;SDS011;42923;53.220;6.528;2022-09-21T01:56:31;13.00;;;8.85;;
52964;SDS011;42923;53.220;6.528;2022-09-21T01:59:19;16.80;;;9.68;;
52964;SDS011;42923;53.220;6.528;2022-09-21T02:01:54;12.02;;;7.97;;
52964;SDS011;42923;53.220;6.528;2022-09-21T02:04:24;16.67;;;8.55;;
52964;SDS011;42923;53.220;6.528;2022-09-21T02:06:50;12.15;;;8.73;;
52964;SDS011;42923;53.220;6.528;2022-09-21T02:09:17;13.27;;;9.30;;
52964;SDS011;42923;53.220;6.528;2022-09-21T02:11:43;24.38;;;9.63;;
52964;SDS011;42923;53.220;6.528;2022-09-21T02:14:10;17.27;;;11.38;;
52964;SDS011;42923;53.220;6.528;2022-09-21T02:16:48;16.45;;;9.23;;
52964;SDS011;42923;53.220;6.528;2022-09-21T02:22:06;11.90;;;8.70;;
52964;SDS011;42923;53.220;6.528;2022-09-21T02:24:39;16.52;;;8.60;;
52964;SDS011;42923;53.220;6.528;2022-09-21T02:27:17;15.15;;;9.27;;
52964;SDS011;42923;53.220;6.528;2022-09-21T02:30:08;15.25;;;9.75;;
52964;SDS011;42923;53.220;6.528;2022-09-21T02:38:19;17.08;;;8.43;;
52964;SDS011;42923;53.220;6.528;2022-09-21T02:41:00;12.63;;;8.80;;
52964;SDS011;42923;53.220;6.528;2022-09-21T02:46:00;13.38;;;9.32;;
52964;SDS011;42923;53.220;6.528;2022-09-21T02:48:34;13.85;;;9.77;;
52964;SDS011;42923;53.220;6.528;2022-09-21T02:51:09;16.02;;;9.27;;
52964;SDS011;42923;53.220;6.528;2022-09-21T02:53:38;13.38;;;9.65;;
52964;SDS011;42923;53.220;6.528;2022-09-21T02:56:06;13.20;;;9.60;;
52964;SDS011;42923;53.220;6.528;2022-09-21T02:58:34;13.40;;;9.63;;
52964;SDS011;42923;53.220;6.528;2022-09-21T03:01:11;15.30;;;9.82;;
52964;SDS011;42923;53.220;6.528;2022-09-21T03:03:40;12.52;;;8.50;;
52964;SDS011;42923;53.220;6.528;2022-09-21T03:06:06;16.17;;;9.05;;
52964;SDS011;42923;53.220;6.528;2022-09-21T03:08:31;15.02;;;9.00;;
52964;SDS011;42923;53.220;6.528;2022-09-21T03:10:57;10.40;;;8.15;;
52964;SDS011;42923;53.220;6.528;2022-09-21T03:13:23;12.30;;;8.20;;
52964;SDS011;42923;53.220;6.528;2022-09-21T03:15:49;14.48;;;10.10;;
52964;SDS011;42923;53.220;6.528;2022-09-21T03:18:26;11.90;;;8.55;;
52964;SDS011;42923;53.220;6.528;2022-09-21T03:20:52;17.33;;;9.82;;
52964;SDS011;42923;53.220;6.528;2022-09-21T03:23:18;15.77;;;8.57;;
52964;SDS011;42923;53.220;6.528;2022-09-21T03:25:44;15.23;;;10.20;;
52964;SDS011;42923;53.220;6.528;2022-09-21T03:28:10;15.23;;;9.90;;
52964;SDS011;42923;53.220;6.528;2022-09-21T03:30:37;14.80;;;10.02;;
52964;SDS011;42923;53.220;6.528;2022-09-21T03:33:03;13.52;;;9.82;;
52964;SDS011;42923;53.220;6.528;2022-09-21T03:35:30;18.67;;;11.00;;
52964;SDS011;42923;53.220;6.528;2022-09-21T03:37:58;15.55;;;10.20;;
52964;SDS011;42923;53.220;6.528;2022-09-21T03:40:24;16.45;;;10.98;;
52964;SDS011;42923;53.220;6.528;2022-09-21T03:42:53;17.40;;;12.55;;
52964;SDS011;42923;53.220;6.528;2022-09-21T03:45:19;22.05;;;13.57;;
52964;SDS011;42923;53.220;6.528;2022-09-21T03:47:58;22.33;;;13.20;;
52964;SDS011;42923;53.220;6.528;2022-09-21T03:50:25;19.85;;;13.90;;
52964;SDS011;42923;53.220;6.528;2022-09-21T03:52:53;26.70;;;14.88;;
52964;SDS011;42923;53.220;6.528;2022-09-21T03:55:19;28.50;;;13.80;;
52964;SDS011;42923;53.220;6.528;2022-09-21T03:57:45;19.73;;;12.05;;
52964;SDS011;42923;53.220;6.528;2022-09-21T04:00:11;17.10;;;11.07;;
52964;SDS011;42923;53.220;6.528;2022-09-21T04:02:38;19.45;;;11.13;;
52964;SDS011;42923;53.220;6.528;2022-09-21T04:05:05;20.65;;;10.75;;
52964;SDS011;42923;53.220;6.528;2022-09-21T04:07:35;16.52;;;9.35;;
52964;SDS011;42923;53.220;6.528;2022-09-21T04:10:05;20.90;;;12.02;;
52964;SDS011;42923;53.220;6.528;2022-09-21T04:12:33;24.30;;;12.93;;
52964;SDS011;42923;53.220;6.528;2022-09-21T04:15:02;19.92;;;11.10;;
52964;SDS011;42923;53.220;6.528;2022-09-21T04:17:31;19.48;;;12.73;;
52964;SDS011;42923;53.220;6.528;2022-09-21T04:19:58;26.27;;;12.57;;
52964;SDS011;42923;53.220;6.528;2022-09-21T04:22:24;24.35;;;13.65;;
52964;SDS011;42923;53.220;6.528;2022-09-21T04:24:50;20.23;;;13.02;;
52964;SDS011;42923;53.220;6.528;2022-09-21T04:27:16;24.35;;;14.05;;
52964;SDS011;42923;53.220;6.528;2022-09-21T04:29:42;23.05;;;13.45;;
52964;SDS011;42923;53.220;6.528;2022-09-21T04:32:09;24.75;;;15.40;;
52964;SDS011;42923;53.220;6.528;2022-09-21T04:34:36;22.50;;;13.77;;
52964;SDS011;42923;53.220;6.528;2022-09-21T04:37:06;23.42;;;14.35;;
52964;SDS011;42923;53.220;6.528;2022-09-21T04:39:33;24.13;;;14.25;;
52964;SDS011;42923;53.220;6.528;2022-09-21T04:42:00;27.08;;;13.93;;
52964;SDS011;42923;53.220;6.528;2022-09-21T04:44:26;30.27;;;14.25;;
52964;SDS011;42923;53.220;6.528;2022-09-21T04:46:52;25.45;;;12.38;;
52964;SDS011;42923;53.220;6.528;2022-09-21T04:49:18;16.88;;;10.60;;
52964;SDS011;42923;53.220;6.528;2022-09-21T04:51:44;21.25;;;11.20;;
52964;SDS011;42923;53.220;6.528;2022-09-21T04:54:10;19.55;;;10.98;;
52964;SDS011;42923;53.220;6.528;2022-09-21T04:56:35;12.48;;;8.63;;
52964;SDS011;42923;53.220;6.528;2022-09-21T04:59:01;14.05;;;9.15;;
52964;SDS011;42923;53.220;6.528;2022-09-21T05:01:27;18.85;;;8.73;;
52964;SDS011;42923;53.220;6.528;2022-09-21T05:03:53;16.08;;;8.63;;
52964;SDS011;42923;53.220;6.528;2022-09-21T05:06:18;13.68;;;8.30;;
52964;SDS011;42923;53.220;6.528;2022-09-21T05:08:44;22.42;;;10.63;;
52964;SDS011;42923;53.220;6.528;2022-09-21T05:11:29;19.40;;;11.05;;
52964;SDS011;42923;53.220;6.528;2022-09-21T05:13:56;27.27;;;13.43;;
52964;SDS011;42923;53.220;6.528;2022-09-21T05:16:21;20.95;;;11.43;;
52964;SDS011;42923;53.220;6.528;2022-09-21T05:18:51;19.30;;;11.27;;
52964;SDS011;42923;53.220;6.528;2022-09-21T05:21:19;24.23;;;10.52;;
52964;SDS011;42923;53.220;6.528;2022-09-21T05:23:45;26.02;;;12.30;;
52964;SDS011;42923;53.220;6.528;2022-09-21T05:26:11;18.50;;;10.60;;
52964;SDS011;42923;53.220;6.528;2022-09-21T05:28:37;24.33;;;12.18;;
52964;SDS011;42923;53.220;6.528;2022-09-21T05:31:04;20.00;;;12.20;;
52964;SDS011;42923;53.220;6.528;2022-09-21T05:33:46;21.35;;;12.45;;
52964;SDS011;42923;53.220;6.528;2022-09-21T05:36:28;20.10;;;11.45;;
52964;SDS011;42923;53.220;6.528;2022-09-21T05:39:02;20.83;;;12.15;;
52964;SDS011;42923;53.220;6.528;2022-09-21T05:41:28;16.52;;;11.63;;
52964;SDS011;42923;53.220;6.528;2022-09-21T05:43:54;27.63;;;14.15;;
52964;SDS011;42923;53.220;6.528;2022-09-21T05:46:41;23.70;;;13.13;;
52964;SDS011;42923;53.220;6.528;2022-09-21T05:49:32;23.67;;;13.30;;
52964;SDS011;42923;53.220;6.528;2022-09-21T05:52:21;22.08;;;12.25;;
52964;SDS011;42923;53.220;6.528;2022-09-21T05:55:31;22.38;;;12.38;;
52964;SDS011;42923;53.220;6.528;2022-09-21T06:03:45;24.92;;;11.68;;
52964;SDS011;42923;53.220;6.528;2022-09-21T06:06:14;25.55;;;13.63;;
52964;SDS011;42923;53.220;6.528;2022-09-21T06:08:41;26.38;;;13.25;;
52964;SDS011;42923;53.220;6.528;2022-09-21T06:11:06;25.20;;;14.27;;
52964;SDS011;42923;53.220;6.528;2022-09-21T06:13:32;30.48;;;15.55;;
52964;SDS011;42923;53.220;6.528;2022-09-21T06:16:00;25.67;;;14.73;;
52964;SDS011;42923;53.220;6.528;2022-09-21T06:18:27;40.83;;;19.27;;
52964;SDS011;42923;53.220;6.528;2022-09-21T06:20:52;34.55;;;17.40;;
52964;SDS011;42923;53.220;6.528;2022-09-21T06:23:18;35.00;;;16.48;;
52964;SDS011;42923;53.220;6.528;2022-09-21T06:25:49;38.20;;;16.90;;
52964;SDS011;42923;53.220;6.528;2022-09-21T06:28:16;40.17;;;17.90;;
52964;SDS011;42923;53.220;6.528;2022-09-21T06:30:41;34.97;;;17.70;;
52964;SDS011;42923;53.220;6.528;2022-09-21T06:33:09;34.45;;;19.02;;
52964;SDS011;42923;53.220;6.528;2022-09-21T06:35:35;33.38;;;18.25;;
52964;SDS011;42923;53.220;6.528;2022-09-21T06:38:05;42.10;;;19.60;;
52964;SDS011;42923;53.220;6.528;2022-09-21T06:40:32;48.78;;;20.25;;
52964;SDS011;42923;53.220;6.528;2022-09-21T06:42:59;39.95;;;20.17;;
52964;SDS011;42923;53.220;6.528;2022-09-21T06:45:27;36.33;;;18.85;;
52964;SDS011;42923;53.220;6.528;2022-09-21T06:47:54;35.25;;;19.10;;
52964;SDS011;42923;53.220;6.528;2022-09-21T06:50:20;35.50;;;19.40;;
52964;SDS011;42923;53.220;6.528;2022-09-21T06:52:46;40.70;;;19.65;;
52964;SDS011;42923;53.220;6.528;2022-09-21T06:55:12;36.47;;;20.15;;
52964;SDS011;42923;53.220;6.528;2022-09-21T06:57:38;40.53;;;19.52;;
52964;SDS011;42923;53.220;6.528;2022-09-21T07:00:05;34.00;;;18.05;;
52964;SDS011;42923;53.220;6.528;2022-09-21T07:02:33;39.80;;;18.33;;
52964;SDS011;42923;53.220;6.528;2022-09-21T07:05:00;29.35;;;18.02;;
52964;SDS011;42923;53.220;6.528;2022-09-21T07:07:26;48.00;;;18.88;;
52964;SDS011;42923;53.220;6.528;2022-09-21T07:09:54;31.17;;;17.20;;
52964;SDS011;42923;53.220;6.528;2022-09-21T07:12:22;27.05;;;16.35;;
52964;SDS011;42923;53.220;6.528;2022-09-21T07:14:50;31.58;;;16.88;;
52964;SDS011;42923;53.220;6.528;2022-09-21T07:17:16;31.02;;;16.35;;
52964;SDS011;42923;53.220;6.528;2022-09-21T07:19:42;31.60;;;17.25;;
52964;SDS011;42923;53.220;6.528;2022-09-21T07:22:08;32.58;;;15.38;;
52964;SDS011;42923;53.220;6.528;2022-09-21T07:24:34;28.70;;;16.10;;
52964;SDS011;42923;53.220;6.528;2022-09-21T07:27:00;27.20;;;15.65;;
52964;SDS011;42923;53.220;6.528;2022-09-21T07:29:26;29.70;;;15.93;;
52964;SDS011;42923;53.220;6.528;2022-09-21T07:31:51;42.42;;;17.10;;
52964;SDS011;42923;53.220;6.528;2022-09-21T07:34:17;30.75;;;15.98;;
52964;SDS011;42923;53.220;6.528;2022-09-21T07:36:43;26.13;;;16.08;;
52964;SDS011;42923;53.220;6.528;2022-09-21T07:39:09;32.88;;;14.70;;
52964;SDS011;42923;53.220;6.528;2022-09-21T07:41:35;27.55;;;15.32;;
52964;SDS011;42923;53.220;6.528;2022-09-21T07:44:01;35.45;;;15.63;;
52964;SDS011;42923;53.220;6.528;2022-09-21T07:46:27;22.60;;;13.50;;
52964;SDS011;42923;53.220;6.528;2022-09-21T07:48:54;21.52;;;13.50;;
52964;SDS011;42923;53.220;6.528;2022-09-21T07:51:22;17.95;;;9.85;;
52964;SDS011;42923;53.220;6.528;2022-09-21T07:53:52;18.40;;;9.40;;
52964;SDS011;42923;53.220;6.528;2022-09-21T07:56:23;20.95;;;9.48;;
52964;SDS011;42923;53.220;6.528;2022-09-21T07:58:49;16.73;;;7.88;;
52964;SDS011;42923;53.220;6.528;2022-09-21T08:01:32;25.25;;;9.98;;
52964;SDS011;42923;53.220;6.528;2022-09-21T08:04:03;17.70;;;8.90;;
52964;SDS011;42923;53.220;6.528;2022-09-21T08:06:30;17.70;;;9.00;;
52964;SDS011;42923;53.220;6.528;2022-09-21T08:09:00;13.35;;;8.25;;
52964;SDS011;42923;53.220;6.528;2022-09-21T08:11:28;15.25;;;6.40;;
52964;SDS011;42923;53.220;6.528;2022-09-21T08:13:56;12.48;;;5.88;;
52964;SDS011;42923;53.220;6.528;2022-09-21T08:16:24;11.57;;;4.70;;
52964;SDS011;42923;53.220;6.528;2022-09-21T08:18:50;9.90;;;5.47;;
52964;SDS011;42923;53.220;6.528;2022-09-21T08:21:16;10.30;;;4.85;;
52964;SDS011;42923;53.220;6.528;2022-09-21T08:23:42;14.25;;;4.72;;
52964;SDS011;42923;53.220;6.528;2022-09-21T08:26:12;8.35;;;5.18;;
52964;SDS011;42923;53.220;6.528;2022-09-21T08:28:42;12.48;;;4.18;;
52964;SDS011;42923;53.220;6.528;2022-09-21T08:31:13;6.53;;;3.42;;
52964;SDS011;42923;53.220;6.528;2022-09-21T08:33:39;19.27;;;3.03;;
52964;SDS011;42923;53.220;6.528;2022-09-21T08:36:05;8.30;;;2.05;;
52964;SDS011;42923;53.220;6.528;2022-09-21T08:38:33;8.05;;;2.50;;
52964;SDS011;42923;53.220;6.528;2022-09-21T08:41:00;6.85;;;2.20;;
52964;SDS011;42923;53.220;6.528;2022-09-21T08:43:41;4.35;;;1.63;;
52964;SDS011;42923;53.220;6.528;2022-09-21T08:46:09;17.80;;;3.67;;
52964;SDS011;42923;53.220;6.528;2022-09-21T08:48:41;9.85;;;2.10;;
52964;SDS011;42923;53.220;6.528;2022-09-21T08:51:13;8.27;;;2.03;;
52964;SDS011;42923;53.220;6.528;2022-09-21T08:53:47;8.30;;;2.33;;
52964;SDS011;42923;53.220;6.528;2022-09-21T08:56:14;3.83;;;1.50;;
52964;SDS011;42923;53.220;6.528;2022-09-21T08:58:41;16.88;;;2.47;;
52964;SDS011;42923;53.220;6.528;2022-09-21T09:20:58;13.05;;;1.70;;
52964;SDS011;42923;53.220;6.528;2022-09-21T09:23:30;3.05;;;1.02;;
52964;SDS011;42923;53.220;6.528;2022-09-21T09:26:01;6.63;;;1.40;;
52964;SDS011;42923;53.220;6.528;2022-09-21T09:28:54;6.30;;;1.65;;
52964;SDS011;42923;53.220;6.528;2022-09-21T09:31:29;8.85;;;1.85;;
52964;SDS011;42923;53.220;6.528;2022-09-21T09:36:52;4.78;;;1.42;;
52964;SDS011;42923;53.220;6.528;2022-09-21T09:39:22;11.23;;;1.60;;
52964;SDS011;42923;53.220;6.528;2022-09-21T09:41:59;4.40;;;1.40;;
52964;SDS011;42923;53.220;6.528;2022-09-21T09:50:27;4.95;;;1.38;;
52964;SDS011;42923;53.220;6.528;2022-09-21T09:52:58;2.63;;;1.20;;
52964;SDS011;42923;53.220;6.528;2022-09-21T09:55:34;7.60;;;1.33;;
52964;SDS011;42923;53.220;6.528;2022-09-21T09:58:02;6.32;;;1.20;;
52964;SDS011;42923;53.220;6.528;2022-09-21T10:00:29;4.22;;;1.40;;
52964;SDS011;42923;53.220;6.528;2022-09-21T10:02:55;2.85;;;1.10;;
52964;SDS011;42923;53.220;6.528;2022-09-21T10:05:32;8.65;;;1.60;;
52964;SDS011;42923;53.220;6.528;2022-09-21T10:08:02;5.78;;;1.45;;
52964;SDS011;42923;53.220;6.528;2022-09-21T10:12:56;5.75;;;1.75;;
52964;SDS011;42923;53.220;6.528;2022-09-21T10:15:26;6.65;;;1.40;;
52964;SDS011;42923;53.220;6.528;2022-09-21T10:18:05;7.93;;;1.52;;
52964;SDS011;42923;53.220;6.528;2022-09-21T10:20:38;5.68;;;1.40;;
52964;SDS011;42923;53.220;6.528;2022-09-21T10:23:24;4.63;;;1.42;;
52964;SDS011;42923;53.220;6.528;2022-09-21T10:25:54;6.18;;;1.10;;
52964;SDS011;42923;53.220;6.528;2022-09-21T10:28:31;9.75;;;1.50;;
52964;SDS011;42923;53.220;6.528;2022-09-21T10:33:38;6.90;;;1.20;;
52964;SDS011;42923;53.220;6.528;2022-09-21T10:36:33;5.25;;;1.85;;
52964;SDS011;42923;53.220;6.528;2022-09-21T10:47:18;5.22;;;1.30;;
52964;SDS011;42923;53.220;6.528;2022-09-21T10:50:03;3.30;;;1.25;;
52964;SDS011;42923;53.220;6.528;2022-09-21T10:52:33;2.55;;;1.40;;
52964;SDS011;42923;53.220;6.528;2022-09-21T10:55:04;2.80;;;1.10;;
52964;SDS011;42923;53.220;6.528;2022-09-21T10:57:31;8.43;;;1.92;;
52964;SDS011;42923;53.220;6.528;2022-09-21T10:59:58;10.15;;;2.60;;
52964;SDS011;42923;53.220;6.528;2022-09-21T11:02:54;4.90;;;1.53;;
52964;SDS011;42923;53.220;6.528;2022-09-21T11:05:25;7.68;;;1.88;;
52964;SDS011;42923;53.220;6.528;2022-09-21T11:08:14;6.95;;;1.98;;
52964;SDS011;42923;53.220;6.528;2022-09-21T11:18:50;5.78;;;1.35;;
52964;SDS011;42923;53.220;6.528;2022-09-21T11:21:33;4.18;;;1.25;;
52964;SDS011;42923;53.220;6.528;2022-09-21T11:27:01;4.07;;;1.33;;
52964;SDS011;42923;53.220;6.528;2022-09-21T11:29:35;7.55;;;1.92;;
52964;SDS011;42923;53.220;6.528;2022-09-21T11:47:42;3.63;;;1.30;;
52964;SDS011;42923;53.220;6.528;2022-09-21T11:49:46;4.38;;;1.50;;
52964;SDS011;42923;53.220;6.528;2022-09-21T11:52:45;8.60;;;1.67;;
52964;SDS011;42923;53.220;6.528;2022-09-21T12:04:00;2.78;;;1.50;;
52964;SDS011;42923;53.220;6.528;2022-09-21T12:06:37;6.40;;;1.30;;
52964;SDS011;42923;53.220;6.528;2022-09-21T12:14:36;40.55;;;8.13;;
52964;SDS011;42923;53.220;6.528;2022-09-21T12:20:11;6.00;;;1.50;;
52964;SDS011;42923;53.220;6.528;2022-09-21T12:23:00;25.77;;;4.93;;
52964;SDS011;42923;53.220;6.528;2022-09-21T12:25:31;5.45;;;1.80;;
52964;SDS011;42923;53.220;6.528;2022-09-21T12:30:47;7.78;;;1.90;;
52964;SDS011;42923;53.220;6.528;2022-09-21T12:33:25;5.38;;;1.38;;
52964;SDS011;42923;53.220;6.528;2022-09-21T12:38:35;3.45;;;1.20;;
52964;SDS011;42923;53.220;6.528;2022-09-21T12:44:17;4.03;;;1.30;;
52964;SDS011;42923;53.220;6.528;2022-09-21T12:47:18;4.97;;;1.58;;
52964;SDS011;42923;53.220;6.528;2022-09-21T12:50:12;5.10;;;1.77;;
52964;SDS011;42923;53.220;6.528;2022-09-21T12:52:50;4.07;;;1.70;;
52964;SDS011;42923;53.220;6.528;2022-09-21T12:58:09;5.72;;;1.55;;
52964;SDS011;42923;53.220;6.528;2022-09-21T13:03:47;3.60;;;1.25;;
52964;SDS011;42923;53.220;6.528;2022-09-21T13:09:11;4.22;;;1.50;;
52964;SDS011;42923;53.220;6.528;2022-09-21T13:14:26;3.67;;;1.65;;
52964;SDS011;42923;53.220;6.528;2022-09-21T13:16:55;4.07;;;1.30;;
52964;SDS011;42923;53.220;6.528;2022-09-21T13:19:26;5.40;;;1.30;;
52964;SDS011;42923;53.220;6.528;2022-09-21T13:22:19;2.47;;;1.23;;
52964;SDS011;42923;53.220;6.528;2022-09-21T13:33:00;6.13;;;1.67;;
52964;SDS011;42923;53.220;6.528;2022-09-21T13:36:29;2.92;;;1.25;;
52964;SDS011;42923;53.220;6.528;2022-09-21T13:38:32;3.38;;;1.35;;
52964;SDS011;42923;53.220;6.528;2022-09-21T13:49:00;3.50;;;1.73;;
52964;SDS011;42923;53.220;6.528;2022-09-21T13:51:28;6.65;;;1.58;;
52964;SDS011;42923;53.220;6.528;2022-09-21T13:53:57;3.92;;;1.23;;
52964;SDS011;42923;53.220;6.528;2022-09-21T13:56:26;4.03;;;1.20;;
52964;SDS011;42923;53.220;6.528;2022-09-21T13:58:53;5.80;;;1.38;;
52964;SDS011;42923;53.220;6.528;2022-09-21T14:01:23;4.97;;;1.10;;
52964;SDS011;42923;53.220;6.528;2022-09-21T14:03:56;8.13;;;1.98;;
52964;SDS011;42923;53.220;6.528;2022-09-21T14:06:30;3.90;;;1.33;;
52964;SDS011;42923;53.220;6.528;2022-09-21T14:09:06;5.88;;;1.35;;
52964;SDS011;42923;53.220;6.528;2022-09-21T14:11:43;5.15;;;1.17;;
52964;SDS011;42923;53.220;6.528;2022-09-21T14:14:16;4.55;;;1.42;;
52964;SDS011;42923;53.220;6.528;2022-09-21T14:16:51;3.67;;;1.55;;
52964;SDS011;42923;53.220;6.528;2022-09-21T14:22:30;3.40;;;1.35;;
52964;SDS011;42923;53.220;6.528;2022-09-21T14:24:39;4.80;;;1.67;;
52964;SDS011;42923;53.220;6.528;2022-09-21T14:29:50;5.95;;;1.27;;
52964;SDS011;42923;53.220;6.528;2022-09-21T14:32:24;5.50;;;1.23;;
52964;SDS011;42923;53.220;6.528;2022-09-21T14:34:54;7.18;;;2.03;;
52964;SDS011;42923;53.220;6.528;2022-09-21T14:37:39;4.60;;;1.90;;
52964;SDS011;42923;53.220;6.528;2022-09-21T14:40:26;2.78;;;1.10;;
52964;SDS011;42923;53.220;6.528;2022-09-21T14:43:05;2.93;;;1.20;;
52964;SDS011;42923;53.220;6.528;2022-09-21T14:51:29;4.78;;;1.30;;
52964;SDS011;42923;53.220;6.528;2022-09-21T14:54:15;4.68;;;1.50;;
52964;SDS011;42923;53.220;6.528;2022-09-21T15:02:39;3.97;;;2.38;;
52964;SDS011;42923;53.220;6.528;2022-09-21T15:08:09;7.45;;;1.40;;
52964;SDS011;42923;53.220;6.528;2022-09-21T15:11:14;7.25;;;1.73;;
52964;SDS011;42923;53.220;6.528;2022-09-21T15:17:26;8.15;;;1.52;;
52964;SDS011;42923;53.220;6.528;2022-09-21T15:19:55;5.75;;;1.25;;
52964;SDS011;42923;53.220;6.528;2022-09-21T15:22:23;5.57;;;1.27;;
52964;SDS011;42923;53.220;6.528;2022-09-21T15:24:52;5.65;;;1.88;;
52964;SDS011;42923;53.220;6.528;2022-09-21T15:27:20;3.88;;;1.63;;
52964;SDS011;42923;53.220;6.528;2022-09-21T15:29:52;3.30;;;2.13;;
52964;SDS011;42923;53.220;6.528;2022-09-21T15:35:04;2.67;;;1.05;;
52964;SDS011;42923;53.220;6.528;2022-09-21T15:37:40;4.03;;;1.38;;
52964;SDS011;42923;53.220;6.528;2022-09-21T15:40:14;5.15;;;1.65;;
52964;SDS011;42923;53.220;6.528;2022-09-21T15:43:05;4.70;;;1.40;;
52964;SDS011;42923;53.220;6.528;2022-09-21T15:48:44;5.43;;;1.45;;
52964;SDS011;42923;53.220;6.528;2022-09-21T15:51:18;3.65;;;1.10;;
52964;SDS011;42923;53.220;6.528;2022-09-21T15:53:58;3.67;;;1.17;;
52964;SDS011;42923;53.220;6.528;2022-09-21T15:56:32;4.90;;;2.05;;
52964;SDS011;42923;53.220;6.528;2022-09-21T15:59:04;3.20;;;1.27;;
52964;SDS011;42923;53.220;6.528;2022-09-21T16:01:37;3.15;;;1.30;;
52964;SDS011;42923;53.220;6.528;2022-09-21T16:04:10;4.60;;;0.98;;
52964;SDS011;42923;53.220;6.528;2022-09-21T16:06:39;3.00;;;0.90;;
52964;SDS011;42923;53.220;6.528;2022-09-21T16:11:49;4.07;;;1.10;;
52964;SDS011;42923;53.220;6.528;2022-09-21T16:14:19;9.65;;;1.60;;
52964;SDS011;42923;53.220;6.528;2022-09-21T16:19:42;3.13;;;1.08;;
52964;SDS011;42923;53.220;6.528;2022-09-21T16:22:43;4.38;;;1.00;;
52964;SDS011;42923;53.220;6.528;2022-09-21T16:25:32;4.13;;;1.35;;
52964;SDS011;42923;53.220;6.528;2022-09-21T16:28:25;5.00;;;1.40;;
52964;SDS011;42923;53.220;6.528;2022-09-21T16:38:43;6.85;;;1.40;;
52964;SDS011;42923;53.220;6.528;2022-09-21T16:41:11;6.25;;;1.52;;
52964;SDS011;42923;53.220;6.528;2022-09-21T16:43:38;6.35;;;1.58;;
52964;SDS011;42923;53.220;6.528;2022-09-21T16:46:08;7.95;;;1.48;;
52964;SDS011;42923;53.220;6.528;2022-09-21T16:48:34;8.60;;;1.58;;
52964;SDS011;42923;53.220;6.528;2022-09-21T16:51:00;6.05;;;1.52;;
52964;SDS011;42923;53.220;6.528;2022-09-21T16:53:26;5.07;;;1.02;;
52964;SDS011;42923;53.220;6.528;2022-09-21T16:55:52;3.53;;;1.25;;
52964;SDS011;42923;53.220;6.528;2022-09-21T16:58:19;10.65;;;1.63;;
52964;SDS011;42923;53.220;6.528;2022-09-21T17:00:45;7.30;;;1.55;;
52964;SDS011;42923;53.220;6.528;2022-09-21T17:03:13;3.17;;;1.10;;
52964;SDS011;42923;53.220;6.528;2022-09-21T17:05:40;5.70;;;1.50;;
52964;SDS011;42923;53.220;6.528;2022-09-21T17:08:07;6.38;;;1.55;;
52964;SDS011;42923;53.220;6.528;2022-09-21T17:10:36;4.25;;;1.45;;
52964;SDS011;42923;53.220;6.528;2022-09-21T17:13:09;7.10;;;1.80;;
52964;SDS011;42923;53.220;6.528;2022-09-21T17:15:37;2.95;;;1.50;;
52964;SDS011;42923;53.220;6.528;2022-09-21T17:18:05;4.70;;;1.30;;
52964;SDS011;42923;53.220;6.528;2022-09-21T17:20:34;7.75;;;2.08;;
52964;SDS011;42923;53.220;6.528;2022-09-21T17:23:02;4.65;;;1.42;;
52964;SDS011;42923;53.220;6.528;2022-09-21T17:25:29;6.00;;;1.00;;
52964;SDS011;42923;53.220;6.528;2022-09-21T17:27:57;4.32;;;1.20;;
52964;SDS011;42923;53.220;6.528;2022-09-21T17:30:23;5.80;;;1.55;;
52964;SDS011;42923;53.220;6.528;2022-09-21T17:32:50;7.18;;;1.80;;
52964;SDS011;42923;53.220;6.528;2022-09-21T17:38:00;4.30;;;1.30;;
52964;SDS011;42923;53.220;6.528;2022-09-21T17:40:26;8.82;;;1.60;;
52964;SDS011;42923;53.220;6.528;2022-09-21T17:42:55;6.10;;;2.42;;
52964;SDS011;42923;53.220;6.528;2022-09-21T17:45:34;5.75;;;1.90;;
52964;SDS011;42923;53.220;6.528;2022-09-21T17:48:03;9.63;;;2.50;;
52964;SDS011;42923;53.220;6.528;2022-09-21T17:50:29;9.93;;;2.00;;
52964;SDS011;42923;53.220;6.528;2022-09-21T17:52:56;7.10;;;1.77;;
52964;SDS011;42923;53.220;6.528;2022-09-21T17:55:48;5.30;;;1.63;;
52964;SDS011;42923;53.220;6.528;2022-09-21T18:01:06;7.93;;;1.70;;
52964;SDS011;42923;53.220;6.528;2022-09-21T18:03:43;12.60;;;1.83;;
52964;SDS011;42923;53.220;6.528;2022-09-21T18:06:09;3.40;;;1.65;;
52964;SDS011;42923;53.220;6.528;2022-09-21T18:08:36;10.52;;;2.13;;
52964;SDS011;42923;53.220;6.528;2022-09-21T18:18:59;4.70;;;2.42;;
52964;SDS011;42923;53.220;6.528;2022-09-21T18:21:29;6.35;;;2.53;;
52964;SDS011;42923;53.220;6.528;2022-09-21T18:26:52;5.50;;;2.50;;
52964;SDS011;42923;53.220;6.528;2022-09-21T18:43:20;5.40;;;2.10;;